x

St. Clair Shores, Mi (clsm4) Weather Station

4:50pm - Thu 18th Sep 2014 All times are CDT. -5 hours from GMT.

  • Wind
    16mph, 22mph gusts
  • Air Temp 59°f
  • Sea Pressure 1021.3mb
  • St. Clair Shores, Mi
  • St. Clair Shores, Mi

More Historic Weather Station data

Upgrade to MSW Pro to gain access to the past 30 days of data for over 8000 Wavebouys and Weather Stations around the globe.

Join Pro

Comparision Forecast

View Surf forecast
   
Thu 09/18 4:50pm 16 22 mph 1021.3mb 59f
4:40pm 16 21 mph 1021.3mb 59f
4:30pm 15 17 mph 1021.3mb 59f
4:20pm 14 18 mph 1021.3mb 59f
4:10pm 17 22 mph 1021mb 59f
4:00pm 17 23 mph 1021mb 59f
3:50pm 18 20 mph 1021mb 59f
3:40pm 18 22 mph 1021mb 59f
3:30pm 20 24 mph 1021mb 59f
3:20pm 15 18 mph 1021mb 60f
3:10pm 15 18 mph 1021mb 60f
3:00pm 17 21 mph 1021mb 59f
2:50pm 20 21 mph 1021mb 60f
2:40pm 16 20 mph 1021mb 60f
2:30pm 18 20 mph 1021mb 61f
2:20pm 13 15 mph 1021mb 61f
2:10pm 14 16 mph 1021mb 61f
2:00pm 15 18 mph 1021mb 61f
1:50pm 15 17 mph 1021mb 61f
1:40pm 15 16 mph 1021mb 61f
1:30pm 14 15 mph 1021.3mb 61f
1:20pm 8 13 mph 1021.3mb 62f
1:00pm 10 13 mph 1021.3mb 61f
12:50pm 11 13 mph 1021.3mb 61f
12:40pm 10 13 mph 1021.3mb 61f
12:30pm 9 11 mph 1021.3mb 62f
12:20pm 10 14 mph 1021.3mb 61f
12:10pm 8 10 mph 1021.3mb 61f
12:00pm 9 10 mph 1021.3mb 61f
11:50am 9 13 mph 1021.3mb 61f
11:40am 13 14 mph 1021.3mb 61f
11:30am 11 13 mph 1021.3mb 61f
11:20am 8 11 mph 1021.3mb 61f
11:10am 10 11 mph 1021mb 61f
11:00am 10 13 mph 1021mb 61f
10:50am 9 13 mph 1021mb 60f
10:40am 8 10 mph 1021mb 60f
10:30am 7 10 mph 1021mb 60f
10:20am 8 11 mph 1020.7mb 60f
10:10am 9 11 mph 1020.7mb 60f
10:00am 8 11 mph 1020.7mb 59f
9:50am 9 10 mph 1020.7mb 59f
9:40am 10 11 mph 1020.7mb 59f
9:30am 10 14 mph 1020.3mb 59f
9:20am 10 15 mph 1020.3mb 59f
9:10am 11 13 mph 1020.3mb 59f
9:00am 10 13 mph 1020.3mb 58f
8:50am 9 14 mph 1020mb 58f
8:40am 10 14 mph 1020mb 58f
8:30am 9 13 mph 1020mb 58f
8:20am 11 14 mph 1019.6mb 57f
8:10am 11 14 mph 1019.6mb 57f
8:00am 10 13 mph 1019.6mb 57f
7:40am 8 11 mph 1019.6mb 56f
7:30am 8 10 mph 1019.6mb 56f
7:20am 8 10 mph 1019.6mb 55f
7:10am 8 11 mph 1019.6mb 55f
7:00am 6 9 mph 1019.6mb 54f
6:50am 8 13 mph 1019.6mb 54f
6:40am 9 14 mph 1019.3mb 54f
6:30am 8 11 mph 1019.3mb 53f
6:20am 6 10 mph 1019.3mb 53f
6:10am 5 9 mph 1019mb 53f
6:00am 5 9 mph 1018.6mb 53f
5:50am 7 10 mph 1018.6mb 53f
5:40am 6 10 mph 1018.6mb 53f
5:30am 6 8 mph 1018.6mb 53f
5:20am 6 9 mph 1018.6mb 54f
5:10am 7 9 mph 1018.3mb 53f
5:00am 6 8 mph 1018.3mb 53f
4:50am 5 9 mph 1018.3mb 53f
4:40am 5 8 mph 1018.3mb 53f
4:30am 3 6 mph 1017.9mb 53f
4:20am 2 5 mph 1017.9mb 53f
4:10am 2 6 mph 1017.6mb 53f
4:00am 5 7 mph 1017.9mb 53f
3:50am 3 8 mph 1017.6mb 54f
3:40am 5 7 mph 1017.6mb 54f
3:30am 5 8 mph 1017.3mb 54f
3:20am 6 8 mph 1017.3mb 54f
3:10am 7 9 mph 1017.3mb 54f
3:00am 6 10 mph 1016.9mb 54f
2:50am 7 9 mph 1016.9mb 55f
2:40am 6 8 mph 1016.9mb 55f
2:20am 6 8 mph 1016.9mb 55f
2:10am 6 8 mph 1016.9mb 55f
2:00am 6 8 mph 1016.9mb 55f
1:50am 6 8 mph 1016.9mb 55f
1:40am 6 8 mph 1016.9mb 55f
1:30am 6 8 mph 1016.9mb 55f
1:20am 6 8 mph 1016.9mb 55f
1:10am 6 7 mph 1016.9mb 55f
1:00am 6 8 mph 1016.9mb 55f
12:50am 6 8 mph 1016.9mb 56f
12:40am 7 9 mph 1016.9mb 56f
12:30am 6 8 mph 1016.9mb 56f
12:20am 6 8 mph 1016.9mb 56f
12:10am 6 8 mph 1016.9mb 56f
12:00am 5 6 mph 1016.9mb 56f
Wed 09/17 11:50pm 5 6 mph 1016.9mb 56f
11:40pm 5 6 mph 1016.9mb 56f
11:30pm 5 6 mph 1016.9mb 56f
11:20pm 5 6 mph 1016.9mb 56f
11:10pm 3 5 mph 1016.6mb 56f
11:00pm 5
mph
1016.6mb 56f
10:50pm 3 5 mph 1016.6mb 56f
10:40pm 3
mph
1016.6mb 56f
10:30pm 2 3 mph 1016.6mb 56f
10:20pm 3 5 mph 1016.6mb 57f
10:10pm 2 3 mph 1016.3mb 57f
10:00pm 2 3 mph 1016.3mb 58f
9:50pm 2 3 mph 1016.3mb 58f
9:40pm 2 3 mph 1016.3mb 58f
9:30pm 2 3 mph 1016.3mb 58f
9:20pm 2 3 mph 1015.9mb 59f
9:00pm 2
mph
1015.9mb 60f
8:50pm 1 2 mph 1015.9mb 60f
8:40pm 1
mph
1015.9mb 60f
8:30pm  -  1 mph 1015.9mb 61f
8:20pm 1 2 mph 1015.9mb 61f
8:10pm 1 2 mph 1015.6mb 62f
8:00pm 1
mph
1015.6mb 62f
7:50pm  -  1 mph 1015.6mb 62f
7:40pm  -  1 mph 1015.6mb 63f
7:30pm  -  2 mph 1015.6mb 63f
7:20pm  -  5 mph 1015.6mb 64f
7:10pm 2 3 mph 1015.6mb 64f
7:00pm 2 5 mph 1015.2mb 64f
6:50pm 2 6 mph 1015.2mb 64f
6:40pm 5 6 mph 1015.2mb 64f
6:30pm 5 7 mph 1015.2mb 64f
6:20pm 5 7 mph 1015.2mb 64f
6:10pm 5 7 mph 1015.2mb 64f
6:00pm 6 9 mph 1015.2mb 64f
5:50pm 6 7 mph 1015.2mb 65f
5:40pm 3 9 mph 1015.2mb 65f
5:30pm 2 7 mph 1015.2mb 65f
5:20pm 3 7 mph 1015.2mb 65f
5:10pm 6 13 mph 1015.2mb 66f
5:00pm 7 11 mph 1014.9mb 66f
4:50pm 8 13 mph 1015.2mb 68f
4:40pm 5 9 mph 1015.2mb 68f
4:30pm 5 8 mph 1015.2mb 67f
4:20pm 5 10 mph 1015.2mb 68f
4:10pm 6 11 mph 1015.2mb 68f
4:00pm 5 14 mph 1015.2mb 67f
3:40pm 5 11 mph 1015.2mb 67f
3:30pm 13 17 mph 1015.2mb 67f
3:20pm 2 14 mph 1015.2mb 67f
3:10pm 8 14 mph 1015.2mb 67f
3:00pm 7 15 mph 1015.2mb 66f
2:50pm 7 13 mph 1015.2mb 66f
2:40pm 7 11 mph 1015.6mb 66f
2:30pm 5 11 mph 1015.6mb 66f
2:20pm 5 11 mph 1015.9mb 66f
2:10pm 5 11 mph 1015.6mb 65f
2:00pm 5 11 mph 1015.6mb 64f
1:50pm 3 7 mph 1015.9mb 64f
1:40pm 5 9 mph 1015.9mb 62f
1:30pm 7 10 mph 1015.9mb 62f
1:20pm 3 8 mph 1015.9mb 63f
1:10pm 3 9 mph 1015.9mb 64f
1:00pm 2 9 mph 1015.9mb 63f
12:50pm 5 8 mph 1016.3mb 62f
12:40pm 6 8 mph 1016.3mb 62f
12:30pm 3 11 mph 1016.3mb 63f
12:20pm 7 13 mph 1016.3mb 60f
12:10pm 9 11 mph 1016.3mb 60f
12:00pm 5 7 mph 1016.3mb 60f
11:50am 3 7 mph 1016.6mb 60f
11:40am 2 5 mph 1016.6mb 62f
11:30am 3 7 mph 1016.6mb 60f
11:20am 3 7 mph 1016.6mb 62f
11:10am 2 10 mph 1016.9mb 61f
11:00am 3 14 mph 1016.9mb 60f
10:50am 2 10 mph 1016.9mb 60f
10:40am 7 13 mph 1016.9mb 59f
10:20am 6 10 mph 1017.3mb 59f
10:10am 5 10 mph 1017.3mb 58f
10:00am 6 8 mph 1017.6mb 59f
9:50am 5 10 mph 1017.6mb 58f
9:40am 5 10 mph 1017.6mb 58f
9:30am 6 8 mph 1017.9mb 57f
9:20am 7 9 mph 1017.9mb 57f
9:10am 7 9 mph 1017.9mb 57f
9:00am 6 7 mph 1017.9mb 56f
8:50am 6 7 mph 1018.3mb 56f
8:40am 3 7 mph 1018.3mb 55f
8:30am 5 6 mph 1018.3mb 54f
8:20am 3 5 mph 1018.3mb 54f
8:10am 3 6 mph 1018.3mb 53f
8:00am 3 6 mph 1018.3mb 53f
7:50am 3 7 mph 1018.3mb 52f
7:40am 6 7 mph 1018.3mb 51f
7:30am 6 7 mph 1018.6mb 51f
7:20am 6 7 mph 1018.3mb 50f
7:10am 5 7 mph 1018.3mb 49f
7:00am 3 6 mph 1018.3mb 49f
6:50am 5 6 mph 1018.3mb 48f
6:40am 5 6 mph 1018.3mb 49f
6:30am 3 5 mph 1018.3mb 49f
6:20am 3 6 mph 1018.3mb 49f
6:10am 5 6 mph 1018.3mb 48f
6:00am 3 5 mph 1018.3mb 49f
5:50am 3 7 mph 1018.3mb 49f
5:40am 6 7 mph 1018.3mb 48f
5:30am 5 6 mph 1017.9mb 48f
5:20am 5 6 mph 1017.9mb 49f
5:00am 2 6 mph 1017.9mb 50f
4:50am 3 5 mph 1017.9mb 50f
4:40am 2
mph
1018.3mb 51f
4:30am  -  2 mph 1017.9mb 51f
4:20am  -  1 mph 1018.3mb 51f
4:10am  -  2 mph 1018.3mb 50f
4:00am  -  3 mph 1018.3mb 51f
3:50am 2 5 mph 1018.3mb 51f
3:40am 3 5 mph 1018.3mb 51f
3:30am 2 3 mph 1018.3mb 51f
3:20am 2 3 mph 1018.3mb 51f
3:10am 2 5 mph 1018.3mb 51f
3:00am 3 5 mph 1018.3mb 52f
2:50am 5 7 mph 1018.3mb 52f
2:40am 5 8 mph 1018.3mb 52f
2:30am 5 8 mph 1018.3mb 53f
2:20am 6 7 mph 1018.6mb 52f
2:10am 5 7 mph 1018.6mb 53f
2:00am 5 7 mph 1018.6mb 53f
1:50am 6 8 mph 1018.6mb 53f
1:40am 6 8 mph 1018.6mb 53f
1:30am 5 7 mph 1018.6mb 53f
1:20am 6 7 mph 1018.6mb 53f
1:10am 5 7 mph 1018.6mb 53f
1:00am 5 7 mph 1018.6mb 54f
12:50am 6 7 mph 1018.3mb 54f
12:40am 6 8 mph 1018.3mb 54f
12:30am 3 7 mph 1018.6mb 54f
12:20am 5 7 mph 1018.3mb 55f
12:10am 6 8 mph 1018.6mb 55f
12:00am 6 7 mph 1018.6mb 55f
Tue 09/16 11:40pm 5 7 mph 1018.6mb 56f
11:30pm 5 7 mph 1018.6mb 56f
11:20pm 5 7 mph 1018.6mb 56f
11:10pm 5 7 mph 1018.6mb 56f
11:00pm 5 7 mph 1018.6mb 56f
10:50pm 5 6 mph 1019mb 57f
10:40pm 5 8 mph 1018.6mb 58f
10:30pm 6 9 mph 1018.6mb 57f
10:20pm 5 6 mph 1018.6mb 56f
10:10pm 2 3 mph 1018.6mb 57f
10:00pm 3
mph
1018.6mb 57f
9:50pm 2 5 mph 1018.6mb 57f
9:40pm 3 5 mph 1018.6mb 57f
9:30pm 3
mph
1018.6mb 57f
9:20pm 2 5 mph 1018.6mb 57f
9:10pm 3 5 mph 1018.6mb 57f
9:00pm 2 3 mph 1018.6mb 58f
8:50pm 2
mph
1018.6mb 58f
8:40pm 2
mph
1018.6mb 58f
8:30pm 2
mph
1018.6mb 59f
8:20pm 2 3 mph 1018.6mb 59f
8:10pm 2 3 mph 1019mb 60f
8:00pm 2 3 mph 1019mb 60f
7:50pm 2 3 mph 1018.6mb 60f
7:40pm 2 3 mph 1018.6mb 60f
7:30pm 3 5 mph 1018.6mb 61f
7:20pm  -  2 mph 1018.6mb 62f
7:10pm 2 3 mph 1018.6mb 62f
7:00pm 2 3 mph 1018.6mb 62f
6:50pm 3 6 mph 1018.6mb 62f
6:40pm 3 6 mph 1018.6mb 62f
6:20pm 8 9 mph 1018.6mb 62f
6:10pm 8 9 mph 1018.6mb 62f
6:00pm 8 9 mph 1018.6mb 62f
5:50pm 8 9 mph 1018.6mb 62f
5:40pm 7 8 mph 1018.6mb 62f
5:30pm 8 9 mph 1018.6mb 62f
5:20pm 8 9 mph 1018.6mb 62f
5:10pm 8 10 mph 1018.6mb 62f
5:00pm 8 10 mph 1018.6mb 62f
4:50pm 8 9 mph 1018.6mb 62f
4:40pm 8 9 mph 1018.6mb 62f
4:30pm 8 9 mph 1018.6mb 62f
4:20pm 8 10 mph 1018.6mb 62f
4:10pm 7 9 mph 1019mb 61f
4:00pm 9 11 mph 1019mb 61f
3:50pm 9 10 mph 1019mb 61f
3:40pm 9 10 mph 1019mb 61f
3:30pm 9 11 mph 1019mb 61f
3:20pm 9 11 mph 1019mb 61f
3:10pm 9 10 mph 1019.3mb 61f
3:00pm 9 10 mph 1019.3mb 60f
2:50pm 9 10 mph 1019.3mb 61f
2:40pm 9 10 mph 1019.3mb 60f
2:30pm 8 10 mph 1019.3mb 60f
2:20pm 8 10 mph 1019.6mb 60f
2:10pm 7 10 mph 1019.6mb 60f
2:00pm 7 9 mph 1019.6mb 60f
1:50pm 7 10 mph 1019.6mb 60f
1:40pm 8
mph
1019.6mb 60f
1:30pm 7 8 mph 1020mb 60f
1:20pm 7 8 mph 1020mb 59f
1:00pm 7 8 mph 1020.3mb 59f
12:50pm 7 8 mph 1020.3mb 59f
12:40pm 7 8 mph 1020.3mb 58f
12:30pm 7 8 mph 1020.7mb 58f
12:20pm 8
mph
1020.7mb 58f
12:10pm 7 8 mph 1020.7mb 58f
12:00pm 6 8 mph 1020.7mb 58f
11:50am 6 7 mph 1021mb 57f
11:40am 6 7 mph 1021mb 57f
11:30am 6
mph
1021mb 57f
11:20am 5 7 mph 1021mb 57f
11:10am 5 6 mph 1021.3mb 57f
11:00am 5 6 mph 1021.3mb 57f
10:50am 5 6 mph 1021.3mb 57f
10:40am 5 6 mph 1021.3mb 57f
10:30am 5 6 mph 1021.3mb 56f
10:20am 6 7 mph 1021.3mb 56f
10:10am 6 7 mph 1021.7mb 56f
10:00am 5 7 mph 1021.7mb 56f
9:50am 6 8 mph 1021.7mb 55f
9:40am 3 7 mph 1021.7mb 55f
9:30am 6 9 mph 1021.7mb 54f
9:20am 7 8 mph 1021.7mb 54f
9:10am 7 8 mph 1021.7mb 53f
9:00am 6 8 mph 1021.7mb 54f
8:50am 6 7 mph 1021.7mb 54f
8:40am 5 6 mph 1021.7mb 53f
8:30am 2 6 mph 1021.7mb 54f
8:20am 5 7 mph 1021.7mb 53f
8:10am 3 8 mph 1021.7mb 52f
8:00am 5 9 mph 1021.7mb 52f
7:40am 5 11 mph 1021.7mb 52f
7:30am 6 9 mph 1021.7mb 51f
7:20am 6 9 mph 1021.7mb 51f
7:10am 6 9 mph 1021.7mb 51f
7:00am 6 8 mph 1021.3mb 51f
6:50am 5 8 mph 1021.3mb 50f
6:40am 6 9 mph 1021.3mb 50f
6:30am 6 8 mph 1021.3mb 50f
6:20am 6 9 mph 1021.3mb 50f
6:10am 6 8 mph 1021mb 50f
6:00am 6 9 mph 1021mb 50f
5:50am 7 9 mph 1021mb 51f
5:40am 7 9 mph 1020.7mb 51f
5:30am 6 9 mph 1020.7mb 51f
5:20am 5 7 mph 1020.7mb 51f
5:10am 5 7 mph 1020.3mb 51f
5:00am 6 9 mph 1020.3mb 51f
4:50am 6 8 mph 1020.3mb 51f
4:40am 6 8 mph 1020mb 51f
4:30am 6 8 mph 1020mb 52f
4:20am 5 7 mph 1020mb 52f
4:10am 5 7 mph 1020mb 52f
4:00am 5 7 mph 1020mb 52f
3:50am 6 8 mph 1020mb 52f
3:40am 5 9 mph 1020mb 52f
3:30am 6 9 mph 1020mb 53f
3:20am 5 10 mph 1020mb 53f
3:10am 5 8 mph 1020mb 53f
3:00am 3 7 mph 1020mb 53f
2:50am 5 7 mph 1019.6mb 54f
2:40am 3 7 mph 1020mb 54f
2:20am 5 7 mph 1020mb 54f
2:10am 5 7 mph 1020mb 54f
2:00am 6 7 mph 1019.6mb 54f
1:50am 3 6 mph 1019.6mb 54f
1:40am 5 7 mph 1019.6mb 54f
1:30am 3 7 mph 1019.6mb 54f
1:20am 3 6 mph 1019.6mb 54f
1:10am 5 7 mph 1019.6mb 55f
1:00am 5 8 mph 1019.6mb 54f
12:50am 3 8 mph 1019.6mb 55f
12:40am 3 7 mph 1019.3mb 55f
12:30am 3 9 mph 1019.3mb 55f
12:20am 6 8 mph 1019.3mb 55f
12:10am 5 7 mph 1019.3mb 55f
12:00am 3 8 mph 1019.3mb 55f
Mon 09/15 11:50pm 5 9 mph 1019.3mb 55f
11:40pm 5 8 mph 1019.3mb 56f
11:30pm 5 7 mph 1019.3mb 56f
11:20pm 5 6 mph 1019.3mb 56f
11:10pm 2 3 mph 1019mb 56f
11:00pm 3 6 mph 1019mb 56f
10:50pm 5 6 mph 1019mb 56f
10:40pm 3 5 mph 1019mb 56f
10:30pm 2 3 mph 1019mb 56f
10:20pm 2 5 mph 1018.6mb 56f
10:10pm 3 5 mph 1018.6mb 56f
10:00pm 3 6 mph 1018.6mb 56f
9:50pm 3 5 mph 1018.6mb 56f
9:40pm 2 5 mph 1019mb 56f
9:30pm 3 6 mph 1019mb 57f
9:20pm 3 6 mph 1019mb 57f
9:00pm 3 6 mph 1019.3mb 57f
8:50pm 5 7 mph 1019.3mb 57f
8:40pm 5 7 mph 1019.3mb 58f
8:30pm 5 7 mph 1019mb 58f
8:20pm 6 7 mph 1019mb 58f
8:10pm 7 9 mph 1019mb 58f
8:00pm 6 8 mph 1019mb 58f
7:50pm 7 9 mph 1018.6mb 58f
7:40pm 7 8 mph 1019mb 58f
7:30pm 5 6 mph 1019mb 58f
7:20pm 6 8 mph 1019mb 58f
7:10pm 6 8 mph 1019mb 58f
7:00pm 6 9 mph 1018.6mb 58f
6:50pm 7 9 mph 1018.6mb 58f
6:40pm 6 7 mph 1018.6mb 59f
6:30pm 5 7 mph 1018.6mb 60f
6:20pm 6 8 mph 1018.6mb 60f
6:10pm 5 7 mph 1018.3mb 60f
6:00pm 5 7 mph 1018.3mb 60f
5:50pm 3 7 mph 1018.3mb 60f
5:40pm 3 6 mph 1018.3mb 60f
5:30pm 3 7 mph 1018.3mb 60f
5:20pm 5 6 mph 1018.3mb 60f
5:10pm 3 6 mph 1018.3mb 60f
5:00pm 5 7 mph 1018.3mb 60f
4:50pm 3 6 mph 1018.3mb 60f
4:40pm 5 6 mph 1018.6mb 60f
4:30pm 3 6 mph 1018.6mb 61f
4:20pm 5 7 mph 1018.6mb 61f
4:10pm 6 8 mph 1018.6mb 61f
4:00pm 3 8 mph 1018.6mb 61f
3:40pm 5 22 mph 1019mb 61f
3:30pm 5 8 mph 1019.3mb 61f
3:20pm 6 9 mph 1020mb 61f
3:10pm 6 8 mph 1020mb 61f
3:00pm 7 9 mph 1020mb 61f
2:50pm 7 10 mph 1020mb 61f
2:40pm 8 11 mph 1019.6mb 61f
2:30pm 9 11 mph 1020mb 61f
2:20pm 8 14 mph 1020mb 61f
2:10pm 8 10 mph 1020mb 61f
2:00pm 6 8 mph 1020mb 61f
1:50pm 6 7 mph 1020mb 61f
1:40pm 3 6 mph 1020mb 61f
1:30pm 3 6 mph 1020.3mb 61f
1:20pm 5 8 mph 1020.3mb 61f
1:10pm 5 7 mph 1020.7mb 60f
1:00pm 6 10 mph 1020.7mb 60f
12:50pm 5 7 mph 1020.7mb 61f
12:40pm 5 7 mph 1020.7mb 60f
12:30pm 2 6 mph 1020.7mb 60f
12:20pm 3 7 mph 1021mb 60f
12:10pm 7 9 mph 1021.3mb 60f
12:00pm 3 7 mph 1021.3mb 60f
11:50am 5 10 mph 1021.3mb 60f
11:40am 9 11 mph 1021.7mb 60f
11:30am 6 9 mph 1021.7mb 60f
11:20am 6 8 mph 1021.7mb 60f
11:10am 6 8 mph 1021.3mb 59f
11:00am 6 7 mph 1021.7mb 59f
10:50am 5 7 mph 1021.7mb 59f
10:40am 5 6 mph 1021.7mb 59f
10:20am 2 6 mph 1021.7mb 59f
10:10am 5 7 mph 1022mb 59f
10:00am 5 6 mph 1022mb 59f
9:50am 5
mph
1021.7mb 58f
9:40am 3 7 mph 1022mb 58f
9:30am 3 8 mph 1022.4mb 58f
9:20am 6 8 mph 1022.4mb 58f
9:10am 5 8 mph 1022.4mb 58f
9:00am 7 8 mph 1022.7mb 58f
8:50am 5 9 mph 1022.4mb 58f
8:40am 6 8 mph 1022.4mb 57f
8:30am 7 9 mph 1022.4mb 57f
8:20am 6 8 mph 1022.4mb 56f
8:10am 7 8 mph 1022.4mb 56f
8:00am 6 9 mph 1022.4mb 55f
7:50am 6 8 mph 1022.7mb 55f
7:40am 6 9 mph 1022.7mb 55f
7:30am 7 8 mph 1022.7mb 54f
7:20am 7 8 mph 1022.7mb 53f
7:10am 6 8 mph 1022.7mb 52f
7:00am 6 8 mph 1022.7mb 51f
6:50am 5 7 mph 1022.7mb 51f
6:40am 5 8 mph 1022.7mb 51f
6:30am 7 8 mph 1023mb 51f
6:20am 6 8 mph 1023mb 51f
6:10am 6 8 mph 1023mb 51f
6:00am 5 7 mph 1023mb 51f
5:50am 5 8 mph 1023mb 51f
5:40am 7 8 mph 1023mb 51f
5:30am 6 7 mph 1023mb 51f
5:20am 5 7 mph 1022.7mb 51f
5:00am 6 8 mph 1023mb 51f
4:50am 7 9 mph 1023mb 51f
4:40am 6 8 mph 1023mb 51f
4:30am 6 8 mph 1023mb 51f
4:20am 5 7 mph 1023mb 51f
4:10am 6 8 mph 1023mb 51f
4:00am 6 7 mph 1023mb 51f
3:50am 6 7 mph 1023mb 51f
3:40am 7 8 mph 1023mb 52f
3:30am 5 8 mph 1023mb 52f
3:20am 6 8 mph 1023mb 52f
3:10am 6 8 mph 1023mb 52f
3:00am 6 8 mph 1023mb 52f
2:50am 5 7 mph 1023mb 52f
2:40am 6
mph
1023mb 52f
2:30am 3 6 mph 1023mb 52f
2:20am 5 6 mph 1023mb 52f
2:10am 5 6 mph 1023mb 52f
2:00am 5 6 mph 1023mb 52f
1:50am 5 6 mph 1023mb 52f
1:40am 3 6 mph 1023mb 52f
1:30am 3 7 mph 1023mb 52f
1:20am 5 6 mph 1023mb 52f
1:10am 5 6 mph 1023.4mb 52f
1:00am 3 6 mph 1023.4mb 53f
12:50am 3 6 mph 1023.4mb 53f
12:40am 3 5 mph 1023.4mb 53f
12:30am 5 6 mph 1023.4mb 54f
12:20am 3 5 mph 1023mb 54f
12:10am 3
mph
1023mb 54f
12:00am 3
mph
1023mb 54f
Sun 09/14 11:40pm 3 5 mph 1023mb 55f
11:30pm 3 5 mph 1023mb 55f
11:20pm 3 6 mph 1023mb 56f
11:10pm 3 6 mph 1023mb 56f
11:00pm 5 6 mph 1023mb 56f
10:50pm 5 7 mph 1023mb 56f